sensor_id;sensor_type;location;lat;lon;timestamp;pressure;altitude;pressure_sealevel;temperature;humidity
57114;BME280;42994;51.606;9.988;2022-11-20T00:00:18;98740.53;;;-6.62;100.00
57114;BME280;42994;51.606;9.988;2022-11-20T00:02:45;98735.31;;;-6.62;100.00
57114;BME280;42994;51.606;9.988;2022-11-20T00:05:11;98729.25;;;-6.63;100.00
57114;BME280;42994;51.606;9.988;2022-11-20T00:07:38;98728.94;;;-6.72;100.00
57114;BME280;42994;51.606;9.988;2022-11-20T00:10:05;98715.84;;;-6.71;100.00
57114;BME280;42994;51.606;9.988;2022-11-20T00:12:33;98716.56;;;-6.69;100.00
57114;BME280;42994;51.606;9.988;2022-11-20T00:15:00;98717.31;;;-6.67;100.00
57114;BME280;42994;51.606;9.988;2022-11-20T00:17:27;98730.28;;;-6.65;100.00
57114;BME280;42994;51.606;9.988;2022-11-20T00:19:53;98724.19;;;-6.80;100.00
57114;BME280;42994;51.606;9.988;2022-11-20T00:22:20;98716.41;;;-6.96;100.00
57114;BME280;42994;51.606;9.988;2022-11-20T00:24:47;98721.50;;;-6.79;100.00
57114;BME280;42994;51.606;9.988;2022-11-20T00:27:14;98711.91;;;-6.78;100.00
57114;BME280;42994;51.606;9.988;2022-11-20T00:29:42;98716.00;;;-6.74;100.00
57114;BME280;42994;51.606;9.988;2022-11-20T00:32:08;98714.06;;;-6.70;100.00
57114;BME280;42994;51.606;9.988;2022-11-20T00:34:35;98720.38;;;-6.74;100.00
57114;BME280;42994;51.606;9.988;2022-11-20T00:37:02;98716.88;;;-6.73;100.00
57114;BME280;42994;51.606;9.988;2022-11-20T00:39:28;98714.13;;;-6.72;100.00
57114;BME280;42994;51.606;9.988;2022-11-20T00:41:55;98721.31;;;-6.76;100.00
57114;BME280;42994;51.606;9.988;2022-11-20T00:44:21;98723.03;;;-7.21;100.00
57114;BME280;42994;51.606;9.988;2022-11-20T00:46:50;98718.75;;;-7.22;100.00
57114;BME280;42994;51.606;9.988;2022-11-20T00:49:16;98722.56;;;-6.97;100.00
57114;BME280;42994;51.606;9.988;2022-11-20T00:51:43;98718.78;;;-6.91;100.00
57114;BME280;42994;51.606;9.988;2022-11-20T00:54:09;98721.19;;;-6.88;100.00
57114;BME280;42994;51.606;9.988;2022-11-20T00:56:36;98719.91;;;-6.81;100.00
57114;BME280;42994;51.606;9.988;2022-11-20T00:59:03;98720.72;;;-6.95;100.00
57114;BME280;42994;51.606;9.988;2022-11-20T01:01:30;98724.75;;;-7.05;100.00
57114;BME280;42994;51.606;9.988;2022-11-20T01:03:59;98728.47;;;-7.56;100.00
57114;BME280;42994;51.606;9.988;2022-11-20T01:06:28;98725.97;;;-7.11;100.00
57114;BME280;42994;51.606;9.988;2022-11-20T01:08:56;98718.72;;;-7.06;100.00
57114;BME280;42994;51.606;9.988;2022-11-20T01:11:25;98723.50;;;-6.98;100.00
57114;BME280;42994;51.606;9.988;2022-11-20T01:13:53;98726.84;;;-6.96;100.00
57114;BME280;42994;51.606;9.988;2022-11-20T01:16:21;98720.50;;;-7.06;100.00
57114;BME280;42994;51.606;9.988;2022-11-20T01:18:50;98711.06;;;-7.09;100.00
57114;BME280;42994;51.606;9.988;2022-11-20T01:21:20;98712.69;;;-7.06;100.00
57114;BME280;42994;51.606;9.988;2022-11-20T01:23:48;98709.13;;;-7.05;100.00
57114;BME280;42994;51.606;9.988;2022-11-20T01:26:17;98704.88;;;-7.06;100.00
57114;BME280;42994;51.606;9.988;2022-11-20T01:28:44;98699.38;;;-7.02;100.00
57114;BME280;42994;51.606;9.988;2022-11-20T01:31:13;98694.25;;;-7.03;100.00
57114;BME280;42994;51.606;9.988;2022-11-20T01:33:40;98699.22;;;-6.99;100.00
57114;BME280;42994;51.606;9.988;2022-11-20T01:36:08;98686.84;;;-6.95;100.00
57114;BME280;42994;51.606;9.988;2022-11-20T01:38:36;98689.25;;;-7.06;100.00
57114;BME280;42994;51.606;9.988;2022-11-20T01:41:04;98682.69;;;-7.44;100.00
57114;BME280;42994;51.606;9.988;2022-11-20T01:43:31;98676.63;;;-7.44;100.00
57114;BME280;42994;51.606;9.988;2022-11-20T01:48:51;98676.06;;;-7.19;100.00
57114;BME280;42994;51.606;9.988;2022-11-20T01:51:27;98672.28;;;-7.13;100.00
57114;BME280;42994;51.606;9.988;2022-11-20T01:54:00;98663.44;;;-7.11;100.00
57114;BME280;42994;51.606;9.988;2022-11-20T01:56:31;98667.44;;;-7.66;100.00
57114;BME280;42994;51.606;9.988;2022-11-20T01:59:02;98663.41;;;-7.87;100.00
57114;BME280;42994;51.606;9.988;2022-11-20T02:01:30;98666.34;;;-7.94;100.00
57114;BME280;42994;51.606;9.988;2022-11-20T02:03:58;98669.38;;;-7.85;100.00
57114;BME280;42994;51.606;9.988;2022-11-20T02:06:27;98659.75;;;-7.53;100.00
57114;BME280;42994;51.606;9.988;2022-11-20T02:08:57;98659.09;;;-7.41;100.00
57114;BME280;42994;51.606;9.988;2022-11-20T02:11:24;98653.00;;;-7.41;100.00
57114;BME280;42994;51.606;9.988;2022-11-20T02:13:50;98658.88;;;-7.38;100.00
57114;BME280;42994;51.606;9.988;2022-11-20T02:16:21;98668.09;;;-7.46;100.00
57114;BME280;42994;51.606;9.988;2022-11-20T02:18:50;98669.50;;;-7.57;100.00
57114;BME280;42994;51.606;9.988;2022-11-20T02:21:23;98666.31;;;-7.46;100.00
57114;BME280;42994;51.606;9.988;2022-11-20T02:24:03;98668.63;;;-7.41;100.00
57114;BME280;42994;51.606;9.988;2022-11-20T02:26:33;98667.34;;;-7.34;100.00
57114;BME280;42994;51.606;9.988;2022-11-20T02:29:02;98664.75;;;-7.34;100.00
57114;BME280;42994;51.606;9.988;2022-11-20T02:31:35;98666.81;;;-7.39;100.00
57114;BME280;42994;51.606;9.988;2022-11-20T02:34:02;98669.91;;;-7.48;100.00
57114;BME280;42994;51.606;9.988;2022-11-20T02:36:32;98664.44;;;-7.44;100.00
57114;BME280;42994;51.606;9.988;2022-11-20T02:38:59;98664.69;;;-7.48;100.00
57114;BME280;42994;51.606;9.988;2022-11-20T02:41:32;98664.69;;;-7.48;100.00
57114;BME280;42994;51.606;9.988;2022-11-20T02:43:59;98656.56;;;-7.42;100.00
57114;BME280;42994;51.606;9.988;2022-11-20T02:46:26;98658.22;;;-7.41;100.00
57114;BME280;42994;51.606;9.988;2022-11-20T02:48:53;98652.47;;;-7.46;100.00
57114;BME280;42994;51.606;9.988;2022-11-20T02:51:19;98653.28;;;-7.46;100.00
57114;BME280;42994;51.606;9.988;2022-11-20T02:53:46;98648.66;;;-7.41;100.00
57114;BME280;42994;51.606;9.988;2022-11-20T02:56:13;98642.59;;;-7.41;100.00
57114;BME280;42994;51.606;9.988;2022-11-20T02:58:40;98646.16;;;-7.42;100.00
57114;BME280;42994;51.606;9.988;2022-11-20T03:01:07;98652.16;;;-8.04;100.00
57114;BME280;42994;51.606;9.988;2022-11-20T03:03:34;98644.00;;;-7.82;100.00
57114;BME280;42994;51.606;9.988;2022-11-20T03:06:00;98651.97;;;-7.69;100.00
57114;BME280;42994;51.606;9.988;2022-11-20T03:08:27;98644.41;;;-7.58;100.00
57114;BME280;42994;51.606;9.988;2022-11-20T03:10:54;98643.72;;;-7.61;100.00
57114;BME280;42994;51.606;9.988;2022-11-20T03:13:21;98645.41;;;-7.60;100.00
57114;BME280;42994;51.606;9.988;2022-11-20T03:15:49;98647.44;;;-7.65;100.00
57114;BME280;42994;51.606;9.988;2022-11-20T03:18:15;98641.41;;;-7.66;100.00
57114;BME280;42994;51.606;9.988;2022-11-20T03:20:42;98638.53;;;-7.61;100.00
57114;BME280;42994;51.606;9.988;2022-11-20T03:23:09;98644.84;;;-7.65;100.00
57114;BME280;42994;51.606;9.988;2022-11-20T03:25:35;98642.75;;;-7.59;100.00
57114;BME280;42994;51.606;9.988;2022-11-20T03:28:02;98646.28;;;-8.07;100.00
57114;BME280;42994;51.606;9.988;2022-11-20T03:30:29;98645.53;;;-8.09;100.00
57114;BME280;42994;51.606;9.988;2022-11-20T03:32:57;98648.00;;;-8.40;100.00
57114;BME280;42994;51.606;9.988;2022-11-20T03:35:23;98645.69;;;-7.97;100.00
57114;BME280;42994;51.606;9.988;2022-11-20T03:37:51;98642.34;;;-7.83;100.00
57114;BME280;42994;51.606;9.988;2022-11-20T03:40:17;98633.28;;;-7.76;100.00
57114;BME280;42994;51.606;9.988;2022-11-20T03:42:44;98626.03;;;-7.70;100.00
57114;BME280;42994;51.606;9.988;2022-11-20T03:45:15;98627.22;;;-7.76;100.00
57114;BME280;42994;51.606;9.988;2022-11-20T03:47:42;98623.78;;;-7.77;100.00
57114;BME280;42994;51.606;9.988;2022-11-20T03:50:12;98617.00;;;-7.79;100.00
57114;BME280;42994;51.606;9.988;2022-11-20T03:52:39;98611.13;;;-7.83;100.00
57114;BME280;42994;51.606;9.988;2022-11-20T03:55:07;98609.44;;;-7.68;100.00
57114;BME280;42994;51.606;9.988;2022-11-20T03:57:34;98618.34;;;-7.72;100.00
57114;BME280;42994;51.606;9.988;2022-11-20T04:00:00;98606.47;;;-7.78;100.00
57114;BME280;42994;51.606;9.988;2022-11-20T04:02:29;98600.38;;;-7.77;100.00
57114;BME280;42994;51.606;9.988;2022-11-20T04:04:56;98610.78;;;-7.93;100.00
57114;BME280;42994;51.606;9.988;2022-11-20T04:07:24;98604.00;;;-7.95;100.00
57114;BME280;42994;51.606;9.988;2022-11-20T04:09:51;98613.81;;;-7.84;100.00
57114;BME280;42994;51.606;9.988;2022-11-20T04:12:18;98613.53;;;-7.80;100.00
57114;BME280;42994;51.606;9.988;2022-11-20T04:14:45;98619.59;;;-8.27;100.00
57114;BME280;42994;51.606;9.988;2022-11-20T04:17:11;98609.22;;;-8.11;100.00
57114;BME280;42994;51.606;9.988;2022-11-20T04:19:38;98606.94;;;-8.01;100.00
57114;BME280;42994;51.606;9.988;2022-11-20T04:22:04;98603.19;;;-7.96;100.00
57114;BME280;42994;51.606;9.988;2022-11-20T04:24:32;98602.50;;;-7.99;100.00
57114;BME280;42994;51.606;9.988;2022-11-20T04:26:59;98601.31;;;-7.94;100.00
57114;BME280;42994;51.606;9.988;2022-11-20T04:29:26;98601.31;;;-7.94;100.00
57114;BME280;42994;51.606;9.988;2022-11-20T04:31:52;98589.47;;;-7.83;100.00
57114;BME280;42994;51.606;9.988;2022-11-20T04:34:19;98597.25;;;-7.83;100.00
57114;BME280;42994;51.606;9.988;2022-11-20T04:36:46;98592.66;;;-7.94;100.00
57114;BME280;42994;51.606;9.988;2022-11-20T04:39:14;98599.59;;;-8.25;100.00
57114;BME280;42994;51.606;9.988;2022-11-20T04:41:42;98597.72;;;-8.23;100.00
57114;BME280;42994;51.606;9.988;2022-11-20T04:44:09;98596.22;;;-8.11;100.00
57114;BME280;42994;51.606;9.988;2022-11-20T04:46:38;98589.66;;;-8.02;100.00
57114;BME280;42994;51.606;9.988;2022-11-20T04:49:06;98594.59;;;-7.98;100.00
57114;BME280;42994;51.606;9.988;2022-11-20T04:51:32;98596.13;;;-7.94;100.00
57114;BME280;42994;51.606;9.988;2022-11-20T04:53:59;98597.03;;;-7.95;100.00
57114;BME280;42994;51.606;9.988;2022-11-20T04:56:26;98593.69;;;-7.97;100.00
57114;BME280;42994;51.606;9.988;2022-11-20T04:58:54;98601.16;;;-8.38;100.00
57114;BME280;42994;51.606;9.988;2022-11-20T05:01:22;98607.47;;;-8.26;100.00
57114;BME280;42994;51.606;9.988;2022-11-20T05:03:49;98598.88;;;-8.13;100.00
57114;BME280;42994;51.606;9.988;2022-11-20T05:06:18;98613.50;;;-8.10;100.00
57114;BME280;42994;51.606;9.988;2022-11-20T05:08:46;98616.25;;;-7.97;100.00
57114;BME280;42994;51.606;9.988;2022-11-20T05:11:14;98608.25;;;-7.94;100.00
57114;BME280;42994;51.606;9.988;2022-11-20T05:13:42;98610.19;;;-7.98;100.00
57114;BME280;42994;51.606;9.988;2022-11-20T05:16:11;98604.25;;;-8.00;100.00
57114;BME280;42994;51.606;9.988;2022-11-20T05:18:39;98608.88;;;-8.21;100.00
57114;BME280;42994;51.606;9.988;2022-11-20T05:21:07;98599.31;;;-8.68;100.00
57114;BME280;42994;51.606;9.988;2022-11-20T05:23:34;98606.28;;;-8.37;100.00
57114;BME280;42994;51.606;9.988;2022-11-20T05:26:02;98604.03;;;-8.43;100.00
57114;BME280;42994;51.606;9.988;2022-11-20T05:28:30;98608.28;;;-8.74;100.00
57114;BME280;42994;51.606;9.988;2022-11-20T05:31:04;98598.41;;;-8.35;100.00
57114;BME280;42994;51.606;9.988;2022-11-20T05:33:32;98599.47;;;-8.23;100.00
57114;BME280;42994;51.606;9.988;2022-11-20T05:35:59;98598.41;;;-8.19;100.00
57114;BME280;42994;51.606;9.988;2022-11-20T05:38:26;98602.66;;;-8.18;100.00
57114;BME280;42994;51.606;9.988;2022-11-20T05:40:52;98591.88;;;-8.26;100.00
57114;BME280;42994;51.606;9.988;2022-11-20T05:43:19;98592.59;;;-8.40;100.00
57114;BME280;42994;51.606;9.988;2022-11-20T05:45:52;98590.00;;;-8.24;100.00
57114;BME280;42994;51.606;9.988;2022-11-20T05:48:18;98598.41;;;-8.19;100.00
57114;BME280;42994;51.606;9.988;2022-11-20T05:50:46;98593.97;;;-8.17;100.00
57114;BME280;42994;51.606;9.988;2022-11-20T05:53:13;98592.38;;;-8.36;100.00
57114;BME280;42994;51.606;9.988;2022-11-20T05:55:40;98590.53;;;-8.49;100.00
57114;BME280;42994;51.606;9.988;2022-11-20T05:58:06;98591.63;;;-8.38;100.00
57114;BME280;42994;51.606;9.988;2022-11-20T06:00:33;98588.50;;;-8.28;100.00
57114;BME280;42994;51.606;9.988;2022-11-20T06:03:00;98603.75;;;-8.22;100.00
57114;BME280;42994;51.606;9.988;2022-11-20T06:05:27;98605.47;;;-8.21;100.00
57114;BME280;42994;51.606;9.988;2022-11-20T06:07:55;98601.31;;;-8.25;100.00
57114;BME280;42994;51.606;9.988;2022-11-20T06:10:21;98590.19;;;-8.59;100.00
57114;BME280;42994;51.606;9.988;2022-11-20T06:12:48;98588.25;;;-8.72;100.00
57114;BME280;42994;51.606;9.988;2022-11-20T06:15:15;98591.84;;;-8.58;100.00
57114;BME280;42994;51.606;9.988;2022-11-20T06:17:41;98586.84;;;-8.45;100.00
57114;BME280;42994;51.606;9.988;2022-11-20T06:20:09;98585.34;;;-8.49;100.00
57114;BME280;42994;51.606;9.988;2022-11-20T06:22:36;98582.81;;;-8.51;100.00
57114;BME280;42994;51.606;9.988;2022-11-20T06:25:07;98580.72;;;-8.44;100.00
57114;BME280;42994;51.606;9.988;2022-11-20T06:27:37;98585.97;;;-8.62;100.00
57114;BME280;42994;51.606;9.988;2022-11-20T06:30:04;98576.94;;;-8.55;100.00
57114;BME280;42994;51.606;9.988;2022-11-20T06:32:32;98573.84;;;-8.45;100.00
57114;BME280;42994;51.606;9.988;2022-11-20T06:34:59;98581.22;;;-8.38;100.00
57114;BME280;42994;51.606;9.988;2022-11-20T06:37:26;98585.94;;;-8.44;100.00
57114;BME280;42994;51.606;9.988;2022-11-20T06:39:53;98586.84;;;-8.45;100.00
57114;BME280;42994;51.606;9.988;2022-11-20T06:42:21;98587.25;;;-8.53;100.00
57114;BME280;42994;51.606;9.988;2022-11-20T06:44:47;98589.44;;;-8.45;100.00
57114;BME280;42994;51.606;9.988;2022-11-20T06:47:14;98580.72;;;-8.44;100.00
57114;BME280;42994;51.606;9.988;2022-11-20T06:49:40;98582.13;;;-8.39;100.00
57114;BME280;42994;51.606;9.988;2022-11-20T06:52:07;98577.84;;;-8.40;100.00
57114;BME280;42994;51.606;9.988;2022-11-20T06:54:34;98575.91;;;-8.36;100.00
57114;BME280;42994;51.606;9.988;2022-11-20T06:57:00;98575.91;;;-8.36;100.00
57114;BME280;42994;51.606;9.988;2022-11-20T06:59:29;98585.31;;;-8.34;100.00
57114;BME280;42994;51.606;9.988;2022-11-20T07:01:55;98583.03;;;-8.40;100.00
57114;BME280;42994;51.606;9.988;2022-11-20T07:04:24;98581.22;;;-8.38;100.00
57114;BME280;42994;51.606;9.988;2022-11-20T07:06:50;98578.25;;;-8.63;100.00
57114;BME280;42994;51.606;9.988;2022-11-20T07:09:17;98580.22;;;-8.51;100.00
57114;BME280;42994;51.606;9.988;2022-11-20T07:11:44;98580.44;;;-8.40;100.00
57114;BME280;42994;51.606;9.988;2022-11-20T07:14:11;98589.00;;;-8.38;100.00
57114;BME280;42994;51.606;9.988;2022-11-20T07:16:39;98586.91;;;-8.31;100.00
57114;BME280;42994;51.606;9.988;2022-11-20T07:19:05;98597.41;;;-8.48;100.00
57114;BME280;42994;51.606;9.988;2022-11-20T07:21:32;98588.34;;;-9.06;100.00
57114;BME280;42994;51.606;9.988;2022-11-20T07:23:58;98596.94;;;-8.73;100.00
57114;BME280;42994;51.606;9.988;2022-11-20T07:26:25;98594.72;;;-8.63;100.00
57114;BME280;42994;51.606;9.988;2022-11-20T07:28:52;98590.59;;;-9.00;100.00
57114;BME280;42994;51.606;9.988;2022-11-20T07:31:18;98583.03;;;-8.72;100.00
57114;BME280;42994;51.606;9.988;2022-11-20T07:33:46;98593.22;;;-8.51;100.00
57114;BME280;42994;51.606;9.988;2022-11-20T07:36:13;98582.88;;;-8.53;100.00
57114;BME280;42994;51.606;9.988;2022-11-20T07:38:40;98590.69;;;-8.53;100.00
57114;BME280;42994;51.606;9.988;2022-11-20T07:41:06;98584.66;;;-8.53;100.00
57114;BME280;42994;51.606;9.988;2022-11-20T07:43:33;98582.31;;;-8.42;100.00
57114;BME280;42994;51.606;9.988;2022-11-20T07:46:00;98596.97;;;-8.41;100.00
57114;BME280;42994;51.606;9.988;2022-11-20T07:48:27;98587.91;;;-8.34;100.00
57114;BME280;42994;51.606;9.988;2022-11-20T07:50:56;98586.41;;;-8.38;100.00
57114;BME280;42994;51.606;9.988;2022-11-20T07:53:23;98592.03;;;-8.61;100.00
57114;BME280;42994;51.606;9.988;2022-11-20T07:55:50;98596.97;;;-8.41;100.00
57114;BME280;42994;51.606;9.988;2022-11-20T07:58:18;98598.91;;;-8.60;100.00
57114;BME280;42994;51.606;9.988;2022-11-20T08:00:44;98602.63;;;-8.48;100.00
57114;BME280;42994;51.606;9.988;2022-11-20T08:03:11;98607.28;;;-8.55;100.00
57114;BME280;42994;51.606;9.988;2022-11-20T08:05:38;98607.63;;;-8.61;100.00
57114;BME280;42994;51.606;9.988;2022-11-20T08:08:06;98603.09;;;-8.42;100.00
57114;BME280;42994;51.606;9.988;2022-11-20T08:10:33;98599.81;;;-8.29;100.00
57114;BME280;42994;51.606;9.988;2022-11-20T08:13:00;98609.31;;;-8.28;100.00
57114;BME280;42994;51.606;9.988;2022-11-20T08:15:48;98607.47;;;-8.26;100.00
57114;BME280;42994;51.606;9.988;2022-11-20T08:18:15;98612.34;;;-8.52;100.00
57114;BME280;42994;51.606;9.988;2022-11-20T08:20:42;98596.44;;;-8.63;100.00
57114;BME280;42994;51.606;9.988;2022-11-20T08:23:10;98609.78;;;-8.70;100.00
57114;BME280;42994;51.606;9.988;2022-11-20T08:25:38;98609.88;;;-8.55;100.00
57114;BME280;42994;51.606;9.988;2022-11-20T08:28:06;98622.31;;;-8.44;100.00
57114;BME280;42994;51.606;9.988;2022-11-20T08:30:34;98613.50;;;-8.42;100.00
57114;BME280;42994;51.606;9.988;2022-11-20T08:33:02;98617.25;;;-8.32;100.00
57114;BME280;42994;51.606;9.988;2022-11-20T08:35:33;98617.50;;;-8.20;100.00
57114;BME280;42994;51.606;9.988;2022-11-20T08:37:59;98618.19;;;-8.17;100.00
57114;BME280;42994;51.606;9.988;2022-11-20T08:40:27;98621.81;;;-8.19;100.00
57114;BME280;42994;51.606;9.988;2022-11-20T08:42:54;98609.06;;;-8.08;100.00
57114;BME280;42994;51.606;9.988;2022-11-20T08:45:21;98621.78;;;-8.03;100.00
57114;BME280;42994;51.606;9.988;2022-11-20T08:47:47;98627.84;;;-8.03;100.00
57114;BME280;42994;51.606;9.988;2022-11-20T08:50:15;98621.53;;;-7.99;100.00
57114;BME280;42994;51.606;9.988;2022-11-20T08:52:42;98621.19;;;-7.93;100.00
57114;BME280;42994;51.606;9.988;2022-11-20T08:55:10;98624.38;;;-7.87;100.00
57114;BME280;42994;51.606;9.988;2022-11-20T08:57:38;98625.97;;;-7.85;100.00
57114;BME280;42994;51.606;9.988;2022-11-20T09:00:06;98623.94;;;-7.80;100.00
57114;BME280;42994;51.606;9.988;2022-11-20T09:02:34;98621.56;;;-7.68;100.00
57114;BME280;42994;51.606;9.988;2022-11-20T09:05:00;98618.72;;;-7.64;100.00
57114;BME280;42994;51.606;9.988;2022-11-20T09:07:28;98616.81;;;-7.76;100.00
57114;BME280;42994;51.606;9.988;2022-11-20T09:09:55;98617.22;;;-7.68;100.00
57114;BME280;42994;51.606;9.988;2022-11-20T09:12:22;98605.72;;;-7.64;100.00
57114;BME280;42994;51.606;9.988;2022-11-20T09:14:50;98615.97;;;-7.61;100.00
57114;BME280;42994;51.606;9.988;2022-11-20T09:17:17;98611.41;;;-7.57;100.00
57114;BME280;42994;51.606;9.988;2022-11-20T09:19:45;98613.66;;;-7.51;100.00
57114;BME280;42994;51.606;9.988;2022-11-20T09:22:12;98604.81;;;-7.48;100.00
57114;BME280;42994;51.606;9.988;2022-11-20T09:24:39;98607.00;;;-7.41;100.00
57114;BME280;42994;51.606;9.988;2022-11-20T09:27:05;98607.84;;;-7.40;100.00
57114;BME280;42994;51.606;9.988;2022-11-20T09:29:32;98613.97;;;-7.41;100.00
57114;BME280;42994;51.606;9.988;2022-11-20T09:32:00;98601.44;;;-7.35;100.00
57114;BME280;42994;51.606;9.988;2022-11-20T09:34:27;98593.16;;;-7.27;100.00
57114;BME280;42994;51.606;9.988;2022-11-20T09:36:53;98600.72;;;-7.22;100.00
57114;BME280;42994;51.606;9.988;2022-11-20T09:39:20;98591.72;;;-7.17;100.00
57114;BME280;42994;51.606;9.988;2022-11-20T09:41:58;98590.75;;;-7.16;100.00
57114;BME280;42994;51.606;9.988;2022-11-20T09:44:38;98587.06;;;-7.11;100.00
57114;BME280;42994;51.606;9.988;2022-11-20T09:47:13;98590.88;;;-7.03;100.00
57114;BME280;42994;51.606;9.988;2022-11-20T09:49:57;98594.72;;;-6.94;100.00
57114;BME280;42994;51.606;9.988;2022-11-20T09:52:39;98588.09;;;-6.85;100.00
57114;BME280;42994;51.606;9.988;2022-11-20T09:55:10;98587.63;;;-6.63;100.00
57114;BME280;42994;51.606;9.988;2022-11-20T09:57:39;98591.75;;;-6.73;100.00
57114;BME280;42994;51.606;9.988;2022-11-20T10:00:10;98583.06;;;-6.74;100.00
57114;BME280;42994;51.606;9.988;2022-11-20T10:02:42;98583.72;;;-6.70;100.00
57114;BME280;42994;51.606;9.988;2022-11-20T10:05:15;98579.25;;;-6.68;100.00
57114;BME280;42994;51.606;9.988;2022-11-20T10:07:48;98571.06;;;-6.62;100.00
57114;BME280;42994;51.606;9.988;2022-11-20T10:10:29;98570.34;;;-6.23;100.00
57114;BME280;42994;51.606;9.988;2022-11-20T10:13:06;98563.56;;;-6.25;100.00
57114;BME280;42994;51.606;9.988;2022-11-20T10:15:42;98561.88;;;-6.26;100.00
57114;BME280;42994;51.606;9.988;2022-11-20T10:18:23;98551.66;;;-6.29;100.00
57114;BME280;42994;51.606;9.988;2022-11-20T10:21:01;98559.09;;;-6.23;100.00
57114;BME280;42994;51.606;9.988;2022-11-20T10:23:51;98562.31;;;-5.92;100.00
57114;BME280;42994;51.606;9.988;2022-11-20T10:26:28;98553.56;;;-5.91;100.00
57114;BME280;42994;51.606;9.988;2022-11-20T10:29:07;98557.13;;;-5.80;100.00
57114;BME280;42994;51.606;9.988;2022-11-20T10:31:37;98551.94;;;-5.67;100.00
57114;BME280;42994;51.606;9.988;2022-11-20T10:34:14;98553.31;;;-5.61;100.00
57114;BME280;42994;51.606;9.988;2022-11-20T10:36:45;98554.31;;;-5.49;100.00
57114;BME280;42994;51.606;9.988;2022-11-20T10:39:17;98556.28;;;-5.40;100.00
57114;BME280;42994;51.606;9.988;2022-11-20T10:41:49;98555.34;;;-5.39;100.00
57114;BME280;42994;51.606;9.988;2022-11-20T10:44:20;98552.63;;;-5.37;100.00
57114;BME280;42994;51.606;9.988;2022-11-20T10:47:01;98547.09;;;-5.46;100.00
57114;BME280;42994;51.606;9.988;2022-11-20T10:49:30;98540.28;;;-5.35;100.00
57114;BME280;42994;51.606;9.988;2022-11-20T10:52:04;98546.16;;;-5.32;100.00
57114;BME280;42994;51.606;9.988;2022-11-20T10:54:40;98546.78;;;-5.41;100.00
57114;BME280;42994;51.606;9.988;2022-11-20T10:57:20;98540.31;;;-5.23;100.00
57114;BME280;42994;51.606;9.988;2022-11-20T10:59:59;98538.13;;;-5.16;100.00
57114;BME280;42994;51.606;9.988;2022-11-20T11:02:33;98544.72;;;-4.97;100.00
57114;BME280;42994;51.606;9.988;2022-11-20T11:05:10;98542.38;;;-4.89;100.00
57114;BME280;42994;51.606;9.988;2022-11-20T11:07:39;98537.69;;;-4.97;100.00
57114;BME280;42994;51.606;9.988;2022-11-20T11:10:14;98540.72;;;-4.77;100.00
57114;BME280;42994;51.606;9.988;2022-11-20T11:12:43;98539.63;;;-4.62;100.00
57114;BME280;42994;51.606;9.988;2022-11-20T11:15:15;98535.38;;;-4.63;100.00
57114;BME280;42994;51.606;9.988;2022-11-20T11:17:50;98524.78;;;-4.49;100.00
57114;BME280;42994;51.606;9.988;2022-11-20T11:20:20;98525.81;;;-4.51;100.00
57114;BME280;42994;51.606;9.988;2022-11-20T11:22:49;98521.41;;;-4.38;100.00
57114;BME280;42994;51.606;9.988;2022-11-20T11:25:21;98518.00;;;-4.27;100.00
57114;BME280;42994;51.606;9.988;2022-11-20T11:27:49;98507.56;;;-4.27;100.00
57114;BME280;42994;51.606;9.988;2022-11-20T11:30:18;98506.03;;;-4.18;100.00
57114;BME280;42994;51.606;9.988;2022-11-20T11:32:45;98502.97;;;-4.12;100.00
57114;BME280;42994;51.606;9.988;2022-11-20T11:35:22;98493.84;;;-4.07;100.00
57114;BME280;42994;51.606;9.988;2022-11-20T11:37:50;98499.28;;;-4.10;100.00
57114;BME280;42994;51.606;9.988;2022-11-20T11:40:21;98491.94;;;-4.04;100.00
57114;BME280;42994;51.606;9.988;2022-11-20T11:42:53;98493.00;;;-4.07;100.00
57114;BME280;42994;51.606;9.988;2022-11-20T11:45:21;98489.75;;;-3.87;100.00
57114;BME280;42994;51.606;9.988;2022-11-20T11:47:48;98488.50;;;-4.05;100.00
57114;BME280;42994;51.606;9.988;2022-11-20T11:50:21;98483.66;;;-3.87;100.00
57114;BME280;42994;51.606;9.988;2022-11-20T11:52:58;98476.34;;;-3.71;100.00
57114;BME280;42994;51.606;9.988;2022-11-20T11:55:31;98468.97;;;-3.65;100.00
57114;BME280;42994;51.606;9.988;2022-11-20T11:58:07;98469.69;;;-3.63;100.00
57114;BME280;42994;51.606;9.988;2022-11-20T12:00:39;98468.09;;;-3.89;100.00
57114;BME280;42994;51.606;9.988;2022-11-20T12:03:13;98458.91;;;-3.94;100.00
57114;BME280;42994;51.606;9.988;2022-11-20T12:05:46;98451.41;;;-3.88;100.00
57114;BME280;42994;51.606;9.988;2022-11-20T12:08:18;98450.28;;;-3.72;100.00
57114;BME280;42994;51.606;9.988;2022-11-20T12:10:52;98446.66;;;-3.94;100.00
57114;BME280;42994;51.606;9.988;2022-11-20T12:13:32;98450.50;;;-3.75;100.00
57114;BME280;42994;51.606;9.988;2022-11-20T12:16:02;98442.09;;;-3.56;100.00
57114;BME280;42994;51.606;9.988;2022-11-20T12:18:30;98451.16;;;-3.38;100.00
57114;BME280;42994;51.606;9.988;2022-11-20T12:21:07;98444.03;;;-3.36;100.00
57114;BME280;42994;51.606;9.988;2022-11-20T12:23:45;98443.78;;;-3.55;100.00
57114;BME280;42994;51.606;9.988;2022-11-20T12:26:21;98438.16;;;-3.51;100.00
57114;BME280;42994;51.606;9.988;2022-11-20T12:29:01;98431.00;;;-3.60;100.00
57114;BME280;42994;51.606;9.988;2022-11-20T12:32:04;98443.28;;;-3.60;100.00
57114;BME280;42994;51.606;9.988;2022-11-20T12:34:43;98438.22;;;-3.28;100.00
57114;BME280;42994;51.606;9.988;2022-11-20T12:37:28;98430.44;;;-3.52;100.00
57114;BME280;42994;51.606;9.988;2022-11-20T12:40:12;98435.53;;;-3.62;100.00
57114;BME280;42994;51.606;9.988;2022-11-20T12:42:54;98428.38;;;-3.60;100.00
57114;BME280;42994;51.606;9.988;2022-11-20T12:45:54;98438.56;;;-3.33;100.00
57114;BME280;42994;51.606;9.988;2022-11-20T12:48:44;98436.88;;;-3.45;100.00
57114;BME280;42994;51.606;9.988;2022-11-20T12:51:40;98437.38;;;-3.29;100.00
57114;BME280;42994;51.606;9.988;2022-11-20T12:54:40;98431.78;;;-3.35;100.00
57114;BME280;42994;51.606;9.988;2022-11-20T12:57:16;98431.16;;;-3.16;100.00
57114;BME280;42994;51.606;9.988;2022-11-20T12:59:57;98430.09;;;-3.36;100.00
57114;BME280;42994;51.606;9.988;2022-11-20T13:02:33;98424.38;;;-3.41;100.00
57114;BME280;42994;51.606;9.988;2022-11-20T13:05:17;98435.09;;;-3.33;100.00